Time;durP1;ratioP1;P1;durP2;ratioP2;P2;SDS_P1;SDS_P2;PMS_P1;PMS_P2;Temp;Humidity;BMP_temperature;BMP_pressure;BME280_temperature;BME280_humidity;BME280_pressure;Samples;Min_cycle;Max_cycle;Signal;HPM_P1;HPM_P2
2023/12/13 00:02:23;;;;;;;6.95;2.58;;;;;;;;;;4992023;28;20041;-92
2023/12/13 00:04:49;;;;;;;6.20;2.22;;;;;;;;;;4985388;28;20021;-92
2023/12/13 00:07:14;;;;;;;4.43;2.30;;;;;;;;;;4996506;28;20056;-93
2023/12/13 00:09:40;;;;;;;5.15;2.17;;;;;;;;;;5013522;28;20025;-91
2023/12/13 00:12:05;;;;;;;6.90;2.60;;;;;;;;;;4985959;28;20048;-92
2023/12/13 00:14:31;;;;;;;4.90;2.28;;;;;;;;;;4979873;28;20053;-92
2023/12/13 00:16:56;;;;;;;7.82;2.40;;;;;;;;;;4996457;28;20488;-92
2023/12/13 00:19:22;;;;;;;5.53;2.20;;;;;;;;;;4994798;28;20033;-85
2023/12/13 00:21:48;;;;;;;5.85;2.50;;;;;;;;;;4999944;28;20026;-85
2023/12/13 00:24:16;;;;;;;6.63;2.80;;;;;;;;;;5027290;28;20480;-85
2023/12/13 00:26:41;;;;;;;5.95;2.50;;;;;;;;;;5008008;28;20041;-85
2023/12/13 00:29:08;;;;;;;6.38;2.30;;;;;;;;;;5009364;28;20489;-85
2023/12/13 00:31:34;;;;;;;5.70;2.20;;;;;;;;;;5009567;28;20427;-85
2023/12/13 00:33:59;;;;;;;3.92;1.90;;;;;;;;;;4999835;28;20030;-84
2023/12/13 00:36:25;;;;;;;4.25;2.03;;;;;;;;;;5027533;28;20427;-85
2023/12/13 00:38:50;;;;;;;6.15;2.15;;;;;;;;;;4991972;28;20443;-85
2023/12/13 00:41:16;;;;;;;4.88;1.80;;;;;;;;;;5001608;28;20033;-85
2023/12/13 00:43:43;;;;;;;6.15;2.03;;;;;;;;;;5002838;28;20071;-85
2023/12/13 00:46:19;;;;;;;6.88;2.08;;;;;;;;;;4992895;28;20029;-85
2023/12/13 00:48:46;;;;;;;3.50;1.98;;;;;;;;;;5027944;28;20026;-85
2023/12/13 00:51:16;;;;;;;6.20;2.15;;;;;;;;;;5015458;28;20032;-85
2023/12/13 00:53:42;;;;;;;4.95;1.60;;;;;;;;;;5003638;28;20030;-85
2023/12/13 00:56:08;;;;;;;5.82;1.60;;;;;;;;;;5010961;28;20446;-85
2023/12/13 00:58:33;;;;;;;4.10;1.75;;;;;;;;;;5011222;28;20034;-85
2023/12/13 01:01:00;;;;;;;4.50;1.90;;;;;;;;;;4987750;28;20115;-85
2023/12/13 01:03:27;;;;;;;5.10;1.80;;;;;;;;;;5008745;28;20034;-84
2023/12/13 01:05:52;;;;;;;4.15;1.67;;;;;;;;;;4998214;28;20033;-85
2023/12/13 01:08:17;;;;;;;2.97;1.50;;;;;;;;;;5030702;28;20033;-83
2023/12/13 01:10:43;;;;;;;4.78;1.70;;;;;;;;;;4978725;28;20156;-85
2023/12/13 01:13:09;;;;;;;6.07;1.77;;;;;;;;;;5011110;28;20057;-84
2023/12/13 01:15:34;;;;;;;6.07;1.67;;;;;;;;;;5013292;28;20079;-84
2023/12/13 01:18:00;;;;;;;5.03;1.70;;;;;;;;;;5012462;28;20408;-84
2023/12/13 01:20:25;;;;;;;3.40;1.75;;;;;;;;;;4977604;28;20025;-84
2023/12/13 01:22:51;;;;;;;4.75;1.90;;;;;;;;;;4997942;28;20041;-84
2023/12/13 01:25:16;;;;;;;4.65;2.00;;;;;;;;;;5011253;28;20391;-83
2023/12/13 01:27:42;;;;;;;4.55;1.73;;;;;;;;;;5009260;28;20091;-90
2023/12/13 01:30:08;;;;;;;5.80;1.90;;;;;;;;;;4999721;28;20029;-91
2023/12/13 01:32:34;;;;;;;6.00;2.03;;;;;;;;;;4977406;28;20707;-90
2023/12/13 01:35:00;;;;;;;4.82;1.73;;;;;;;;;;5024119;28;20048;-91
2023/12/13 01:37:26;;;;;;;3.42;1.63;;;;;;;;;;4996218;28;20373;-91
2023/12/13 01:39:56;;;;;;;4.90;2.10;;;;;;;;;;4989606;28;20092;-91
2023/12/13 01:42:21;;;;;;;4.43;1.90;;;;;;;;;;5001894;28;20475;-90
2023/12/13 01:44:48;;;;;;;3.75;2.08;;;;;;;;;;4985376;28;20041;-91
2023/12/13 01:47:14;;;;;;;7.40;2.20;;;;;;;;;;5002066;28;20111;-90
2023/12/13 01:49:39;;;;;;;3.75;1.85;;;;;;;;;;4996187;28;20124;-91
2023/12/13 01:52:07;;;;;;;5.40;2.30;;;;;;;;;;5014794;28;20498;-91
2023/12/13 01:54:33;;;;;;;5.13;1.98;;;;;;;;;;5000356;28;20463;-91
2023/12/13 01:56:59;;;;;;;6.70;1.80;;;;;;;;;;5001056;28;20041;-90
2023/12/13 01:59:28;;;;;;;6.95;1.77;;;;;;;;;;5004797;28;20038;-91
2023/12/13 02:01:56;;;;;;;4.35;1.75;;;;;;;;;;5007612;28;20022;-91
2023/12/13 02:04:24;;;;;;;5.03;1.90;;;;;;;;;;4993429;28;20038;-90
2023/12/13 02:06:50;;;;;;;6.43;1.88;;;;;;;;;;5008249;28;20030;-91
2023/12/13 02:09:16;;;;;;;4.28;1.70;;;;;;;;;;4978759;28;20045;-91
2023/12/13 02:11:41;;;;;;;5.35;1.70;;;;;;;;;;5007566;28;20444;-93
2023/12/13 02:14:07;;;;;;;3.30;1.50;;;;;;;;;;5009201;28;20072;-92
2023/12/13 02:16:34;;;;;;;6.82;2.03;;;;;;;;;;4999228;28;20128;-91
2023/12/13 02:19:00;;;;;;;3.65;1.63;;;;;;;;;;5000218;28;20083;-91
2023/12/13 02:21:25;;;;;;;3.85;1.50;;;;;;;;;;5013227;28;20033;-91
2023/12/13 02:23:55;;;;;;;4.03;1.70;;;;;;;;;;4991546;28;20370;-91
2023/12/13 02:26:21;;;;;;;4.05;2.08;;;;;;;;;;5016981;28;20079;-90
2023/12/13 02:28:48;;;;;;;4.53;2.08;;;;;;;;;;4999715;28;20435;-91
2023/12/13 02:31:16;;;;;;;4.78;2.00;;;;;;;;;;5002953;28;20025;-90
2023/12/13 02:33:41;;;;;;;3.67;1.90;;;;;;;;;;5012634;28;20484;-91
2023/12/13 02:36:08;;;;;;;5.68;2.10;;;;;;;;;;4998123;28;20098;-90
2023/12/13 02:38:33;;;;;;;2.95;1.85;;;;;;;;;;4985360;28;20175;-90
2023/12/13 02:40:59;;;;;;;3.92;2.05;;;;;;;;;;5013855;28;20049;-90
2023/12/13 02:43:27;;;;;;;5.50;2.58;;;;;;;;;;4995117;28;20458;-90
2023/12/13 02:45:53;;;;;;;6.38;2.67;;;;;;;;;;4985556;28;20036;-92
2023/12/13 02:48:19;;;;;;;4.07;2.40;;;;;;;;;;5016089;28;20403;-92
2023/12/13 02:50:45;;;;;;;3.80;2.33;;;;;;;;;;5000924;28;20030;-91
2023/12/13 02:53:11;;;;;;;5.07;2.38;;;;;;;;;;5014475;28;20040;-90
2023/12/13 02:55:37;;;;;;;5.00;2.85;;;;;;;;;;5014099;28;20053;-90
2023/12/13 02:58:04;;;;;;;9.90;2.75;;;;;;;;;;4999466;28;20033;-84
2023/12/13 03:00:30;;;;;;;6.00;2.90;;;;;;;;;;5029094;28;20068;-85
2023/12/13 03:02:58;;;;;;;7.20;2.95;;;;;;;;;;5007254;28;20065;-85
2023/12/13 03:05:24;;;;;;;4.03;2.40;;;;;;;;;;5011578;28;20025;-84
2023/12/13 03:07:50;;;;;;;8.07;3.20;;;;;;;;;;5025619;28;20529;-85
2023/12/13 03:10:15;;;;;;;6.53;2.70;;;;;;;;;;5010335;28;20036;-84
2023/12/13 03:12:41;;;;;;;5.18;2.70;;;;;;;;;;5016490;28;20043;-84
2023/12/13 03:15:07;;;;;;;4.30;2.60;;;;;;;;;;5000846;28;20037;-84
2023/12/13 03:17:33;;;;;;;8.73;3.00;;;;;;;;;;5011730;28;20030;-85
2023/12/13 03:19:58;;;;;;;4.07;2.47;;;;;;;;;;5013866;28;20037;-85
2023/12/13 03:22:24;;;;;;;7.65;3.05;;;;;;;;;;5025798;28;20026;-85
2023/12/13 03:24:51;;;;;;;6.53;3.08;;;;;;;;;;4997651;28;20025;-84
2023/12/13 03:27:16;;;;;;;5.50;2.88;;;;;;;;;;5007695;28;20044;-84
2023/12/13 03:29:42;;;;;;;6.85;3.10;;;;;;;;;;5013521;28;20400;-85
2023/12/13 03:32:08;;;;;;;5.28;2.60;;;;;;;;;;4999613;28;20034;-85
2023/12/13 03:34:33;;;;;;;4.97;2.50;;;;;;;;;;5030291;28;20031;-84
2023/12/13 03:37:01;;;;;;;6.85;2.90;;;;;;;;;;5006980;28;20034;-84
2023/12/13 03:39:27;;;;;;;7.07;2.80;;;;;;;;;;5002401;28;20048;-84
2023/12/13 03:41:52;;;;;;;6.53;2.80;;;;;;;;;;5010501;28;20033;-85
2023/12/13 03:44:18;;;;;;;5.35;2.50;;;;;;;;;;5011434;28;20087;-84
2023/12/13 03:46:43;;;;;;;6.55;2.70;;;;;;;;;;4989484;28;20095;-84
2023/12/13 03:49:10;;;;;;;5.68;3.15;;;;;;;;;;5024072;28;20411;-90
2023/12/13 03:51:36;;;;;;;6.90;2.88;;;;;;;;;;4983440;28;20124;-90
2023/12/13 03:54:01;;;;;;;7.20;2.50;;;;;;;;;;5009613;28;20183;-90
2023/12/13 03:56:29;;;;;;;4.60;2.60;;;;;;;;;;4983043;28;20053;-89
2023/12/13 03:58:56;;;;;;;8.07;2.67;;;;;;;;;;5001372;28;20041;-90
2023/12/13 04:01:21;;;;;;;5.82;2.75;;;;;;;;;;5012037;28;20029;-90
2023/12/13 04:03:47;;;;;;;8.48;3.30;;;;;;;;;;5000972;28;20035;-90
2023/12/13 04:06:12;;;;;;;10.95;2.92;;;;;;;;;;5003056;28;20025;-90
2023/12/13 04:08:37;;;;;;;9.00;3.20;;;;;;;;;;5017745;28;20021;-85
2023/12/13 04:11:03;;;;;;;7.00;2.95;;;;;;;;;;4999912;28;20029;-84
2023/12/13 04:13:29;;;;;;;5.93;2.67;;;;;;;;;;5013935;28;20387;-84
2023/12/13 04:15:54;;;;;;;9.65;3.03;;;;;;;;;;5001595;28;20042;-84
2023/12/13 04:18:21;;;;;;;5.35;2.55;;;;;;;;;;4998410;28;20407;-84
2023/12/13 04:20:46;;;;;;;6.22;3.10;;;;;;;;;;5023751;28;20124;-84
2023/12/13 04:23:12;;;;;;;7.15;2.67;;;;;;;;;;5030559;28;20120;-84
2023/12/13 04:25:38;;;;;;;9.45;2.55;;;;;;;;;;5019060;28;20026;-84
2023/12/13 04:28:03;;;;;;;7.35;2.70;;;;;;;;;;5003802;28;20403;-84
2023/12/13 04:30:29;;;;;;;7.68;3.03;;;;;;;;;;5032131;28;20026;-85
2023/12/13 04:32:56;;;;;;;8.55;2.83;;;;;;;;;;5011787;28;20053;-85
2023/12/13 04:35:21;;;;;;;9.23;2.70;;;;;;;;;;4999579;28;20041;-84
2023/12/13 04:37:47;;;;;;;5.28;2.50;;;;;;;;;;5011033;28;20033;-85
2023/12/13 04:40:12;;;;;;;7.28;2.80;;;;;;;;;;5013049;28;20032;-84
2023/12/13 04:42:38;;;;;;;5.55;2.42;;;;;;;;;;5014385;28;20033;-84
2023/12/13 04:45:05;;;;;;;9.93;2.67;;;;;;;;;;5013693;28;20080;-84
2023/12/13 04:47:30;;;;;;;6.05;2.50;;;;;;;;;;5024471;28;20026;-84
2023/12/13 04:49:57;;;;;;;13.55;3.00;;;;;;;;;;5014845;28;20033;-84
2023/12/13 04:52:23;;;;;;;5.85;2.50;;;;;;;;;;5032553;28;20036;-84
2023/12/13 04:54:48;;;;;;;5.65;2.05;;;;;;;;;;4995638;28;20446;-84
2023/12/13 04:57:13;;;;;;;7.18;2.78;;;;;;;;;;5011259;28;20033;-85
2023/12/13 04:59:41;;;;;;;4.88;2.28;;;;;;;;;;5012614;28;20037;-84
2023/12/13 05:02:08;;;;;;;6.40;2.53;;;;;;;;;;4997711;28;20285;-84
2023/12/13 05:04:35;;;;;;;11.68;2.80;;;;;;;;;;4997086;28;20029;-84
2023/12/13 05:07:01;;;;;;;5.30;2.25;;;;;;;;;;5031384;28;20041;-84
2023/12/13 05:09:26;;;;;;;6.30;2.45;;;;;;;;;;5007657;28;20036;-84
2023/12/13 05:11:51;;;;;;;9.45;2.50;;;;;;;;;;5008477;28;20034;-84
2023/12/13 05:14:17;;;;;;;11.00;2.60;;;;;;;;;;5002094;28;20385;-84
2023/12/13 05:16:42;;;;;;;8.93;2.58;;;;;;;;;;5012595;28;20449;-84
2023/12/13 05:19:08;;;;;;;7.07;2.42;;;;;;;;;;5009996;28;20037;-84
2023/12/13 05:21:33;;;;;;;5.93;2.20;;;;;;;;;;5027066;28;20033;-84
2023/12/13 05:23:59;;;;;;;7.93;2.53;;;;;;;;;;4995567;28;20041;-84
2023/12/13 05:26:24;;;;;;;8.27;2.30;;;;;;;;;;5010142;28;20661;-84
2023/12/13 05:28:50;;;;;;;6.25;2.15;;;;;;;;;;5007368;28;20194;-84
2023/12/13 05:31:19;;;;;;;8.75;2.17;;;;;;;;;;4997521;28;20026;-84
2023/12/13 05:33:44;;;;;;;8.82;2.45;;;;;;;;;;5011255;28;20035;-84
2023/12/13 05:36:10;;;;;;;8.23;2.20;;;;;;;;;;5005601;28;20030;-84
2023/12/13 05:38:36;;;;;;;7.50;2.65;;;;;;;;;;5031050;28;20037;-84
2023/12/13 05:41:02;;;;;;;7.78;2.55;;;;;;;;;;5008484;28;20037;-84
2023/12/13 05:43:28;;;;;;;8.98;2.33;;;;;;;;;;5027316;28;20038;-84
2023/12/13 05:45:54;;;;;;;7.47;2.10;;;;;;;;;;5032154;28;20030;-85
2023/12/13 05:48:21;;;;;;;8.45;2.28;;;;;;;;;;5014418;28;20025;-84
2023/12/13 05:50:46;;;;;;;7.65;2.25;;;;;;;;;;5010722;28;20030;-84
2023/12/13 05:53:12;;;;;;;7.78;2.40;;;;;;;;;;4992358;28;20026;-84
2023/12/13 05:55:37;;;;;;;8.75;2.17;;;;;;;;;;5025066;28;20057;-85
2023/12/13 05:58:03;;;;;;;8.73;2.28;;;;;;;;;;5030891;28;20618;-84
2023/12/13 06:00:31;;;;;;;6.22;2.15;;;;;;;;;;4997229;28;20037;-84
2023/12/13 06:02:58;;;;;;;8.30;2.28;;;;;;;;;;4999032;28;20044;-84
2023/12/13 06:05:24;;;;;;;8.75;2.78;;;;;;;;;;5025290;28;20018;-84
2023/12/13 06:07:50;;;;;;;8.65;2.60;;;;;;;;;;5024857;28;20112;-90
2023/12/13 06:10:15;;;;;;;9.50;2.90;;;;;;;;;;5015006;28;20464;-90
2023/12/13 06:12:41;;;;;;;10.98;2.83;;;;;;;;;;5003417;28;20041;-90
2023/12/13 06:15:07;;;;;;;7.05;2.42;;;;;;;;;;4999622;28;20037;-90
2023/12/13 06:17:32;;;;;;;7.70;2.55;;;;;;;;;;4997601;28;20029;-89
2023/12/13 06:19:58;;;;;;;7.20;2.47;;;;;;;;;;4994542;28;20036;-90
2023/12/13 06:22:23;;;;;;;9.00;2.47;;;;;;;;;;4997535;28;20026;-90
2023/12/13 06:24:48;;;;;;;11.00;2.80;;;;;;;;;;5001446;28;20032;-90
2023/12/13 06:27:14;;;;;;;5.78;2.13;;;;;;;;;;4984639;28;20031;-89
2023/12/13 06:29:39;;;;;;;10.20;3.08;;;;;;;;;;4982888;28;20057;-90
2023/12/13 06:32:05;;;;;;;6.57;2.30;;;;;;;;;;4981713;28;20069;-90
2023/12/13 06:34:32;;;;;;;8.95;2.72;;;;;;;;;;4983120;28;20030;-90
2023/12/13 06:36:57;;;;;;;9.77;2.35;;;;;;;;;;5004429;28;20033;-90
2023/12/13 06:39:23;;;;;;;9.70;2.72;;;;;;;;;;4999728;28;20041;-89
2023/12/13 06:41:48;;;;;;;8.85;3.25;;;;;;;;;;4998848;28;20026;-89
2023/12/13 06:44:14;;;;;;;9.13;2.70;;;;;;;;;;5004953;28;20515;-89
2023/12/13 06:46:39;;;;;;;10.27;2.80;;;;;;;;;;4997593;28;20025;-90
2023/12/13 06:49:05;;;;;;;9.75;2.90;;;;;;;;;;5006855;28;20034;-90
2023/12/13 06:51:31;;;;;;;8.35;3.42;;;;;;;;;;4982116;28;20041;-90
2023/12/13 06:53:56;;;;;;;9.18;2.80;;;;;;;;;;5001546;28;20120;-89
2023/12/13 06:56:21;;;;;;;13.40;3.08;;;;;;;;;;4983914;28;20550;-89
2023/12/13 06:58:47;;;;;;;11.82;3.25;;;;;;;;;;4996788;28;20048;-89
2023/12/13 07:01:13;;;;;;;7.68;2.80;;;;;;;;;;4988227;28;20486;-89
2023/12/13 07:03:39;;;;;;;9.02;2.58;;;;;;;;;;5005938;28;20029;-89
2023/12/13 07:06:04;;;;;;;12.68;3.35;;;;;;;;;;4989392;28;20034;-89
2023/12/13 07:08:30;;;;;;;9.43;3.10;;;;;;;;;;5009881;28;20036;-90
2023/12/13 07:10:55;;;;;;;9.02;2.95;;;;;;;;;;5000105;28;20659;-90
2023/12/13 07:13:21;;;;;;;7.60;2.65;;;;;;;;;;5002571;28;20030;-90
2023/12/13 07:15:46;;;;;;;7.15;2.63;;;;;;;;;;4990984;28;20071;-90
2023/12/13 07:18:15;;;;;;;8.20;2.95;;;;;;;;;;4984737;28;20060;-84
2023/12/13 07:20:40;;;;;;;5.55;2.70;;;;;;;;;;5004653;28;20036;-84
2023/12/13 07:23:05;;;;;;;9.57;3.10;;;;;;;;;;5015336;28;20124;-83
2023/12/13 07:25:31;;;;;;;10.63;3.17;;;;;;;;;;5008174;28;20033;-84
2023/12/13 07:27:58;;;;;;;12.13;3.47;;;;;;;;;;5013538;28;20116;-83
2023/12/13 07:30:23;;;;;;;10.30;3.20;;;;;;;;;;5024269;28;20025;-84
2023/12/13 07:32:50;;;;;;;7.57;2.80;;;;;;;;;;5032191;28;20387;-83
2023/12/13 07:35:18;;;;;;;9.63;3.03;;;;;;;;;;5029199;28;20052;-84
2023/12/13 07:37:44;;;;;;;9.15;3.40;;;;;;;;;;5004212;28;20407;-84
2023/12/13 07:40:09;;;;;;;12.93;3.67;;;;;;;;;;5023695;28;20026;-84
2023/12/13 07:42:35;;;;;;;8.32;3.25;;;;;;;;;;5006340;28;20030;-83
2023/12/13 07:45:00;;;;;;;8.20;3.25;;;;;;;;;;5023484;28;20529;-83
2023/12/13 07:47:26;;;;;;;6.03;2.97;;;;;;;;;;5025166;28;20037;-84
2023/12/13 07:49:53;;;;;;;8.10;3.13;;;;;;;;;;5025533;28;20618;-83
2023/12/13 07:52:18;;;;;;;7.82;3.38;;;;;;;;;;5011915;28;20488;-83
2023/12/13 07:54:45;;;;;;;7.13;3.30;;;;;;;;;;5027582;28;20033;-84
2023/12/13 07:57:10;;;;;;;7.85;2.97;;;;;;;;;;5014618;28;20038;-83
2023/12/13 07:59:38;;;;;;;8.10;3.28;;;;;;;;;;5025956;28;20021;-83
2023/12/13 08:02:04;;;;;;;8.10;3.50;;;;;;;;;;5028518;28;20041;-84
2023/12/13 08:04:30;;;;;;;10.75;3.83;;;;;;;;;;5023693;28;20021;-83
2023/12/13 08:06:55;;;;;;;9.13;3.20;;;;;;;;;;5012291;28;20047;-84
2023/12/13 08:09:21;;;;;;;7.72;3.25;;;;;;;;;;5011825;28;20393;-83
2023/12/13 08:11:49;;;;;;;10.70;3.38;;;;;;;;;;5026960;28;20430;-83
2023/12/13 08:14:15;;;;;;;9.20;3.58;;;;;;;;;;5037177;28;20121;-84
2023/12/13 08:16:41;;;;;;;8.13;3.00;;;;;;;;;;5005406;28;20128;-84
2023/12/13 08:19:06;;;;;;;9.02;3.65;;;;;;;;;;5038742;28;20402;-84
2023/12/13 08:21:32;;;;;;;10.00;3.13;;;;;;;;;;5031874;28;20041;-84
2023/12/13 08:23:57;;;;;;;6.80;3.53;;;;;;;;;;5012603;28;20034;-83
2023/12/13 08:26:25;;;;;;;11.63;4.10;;;;;;;;;;5020450;28;20088;-83
2023/12/13 08:28:51;;;;;;;10.43;4.20;;;;;;;;;;4995527;28;20034;-89
2023/12/13 08:31:17;;;;;;;11.07;3.90;;;;;;;;;;5016362;28;20025;-91
2023/12/13 08:33:43;;;;;;;11.18;3.72;;;;;;;;;;4994609;28;20033;-90
2023/12/13 08:36:13;;;;;;;9.32;3.80;;;;;;;;;;5005635;28;20099;-88
2023/12/13 08:38:42;;;;;;;7.97;4.25;;;;;;;;;;5015699;28;20057;-90
2023/12/13 08:41:09;;;;;;;8.73;3.55;;;;;;;;;;5013641;28;20116;-91
2023/12/13 08:43:35;;;;;;;6.20;3.38;;;;;;;;;;5009677;28;20026;-91
2023/12/13 08:46:01;;;;;;;6.00;3.20;;;;;;;;;;5009943;28;20067;-92
2023/12/13 08:48:28;;;;;;;8.02;3.38;;;;;;;;;;5013039;28;20036;-83
2023/12/13 08:50:54;;;;;;;8.65;3.40;;;;;;;;;;5028544;28;20075;-83
2023/12/13 08:53:19;;;;;;;7.60;3.20;;;;;;;;;;5023638;28;20053;-84
2023/12/13 08:55:45;;;;;;;9.90;3.60;;;;;;;;;;5030197;28;20129;-83
2023/12/13 08:58:11;;;;;;;10.65;3.35;;;;;;;;;;4988611;28;20053;-83
2023/12/13 09:00:37;;;;;;;7.47;3.30;;;;;;;;;;5005220;28;20053;-83
2023/12/13 09:03:04;;;;;;;6.65;3.15;;;;;;;;;;4999873;28;20037;-83
2023/12/13 09:05:30;;;;;;;7.25;3.17;;;;;;;;;;5000939;28;20033;-82
2023/12/13 09:07:57;;;;;;;7.38;3.35;;;;;;;;;;5027022;28;20095;-82
2023/12/13 09:10:22;;;;;;;8.73;3.28;;;;;;;;;;5018580;28;20034;-83
2023/12/13 09:12:48;;;;;;;6.47;3.28;;;;;;;;;;5006115;28;20099;-82
2023/12/13 09:25:03;;;;;;;11.15;3.75;;;;;;;;;;5022255;28;20137;-83
2023/12/13 09:27:29;;;;;;;7.15;3.50;;;;;;;;;;5011023;28;20037;-83
2023/12/13 09:29:55;;;;;;;8.60;3.40;;;;;;;;;;4988364;28;20041;-83
2023/12/13 09:32:21;;;;;;;9.00;3.60;;;;;;;;;;5022570;28;20037;-83
2023/12/13 09:34:47;;;;;;;6.78;3.22;;;;;;;;;;5029320;28;20148;-83
2023/12/13 09:37:15;;;;;;;9.75;4.00;;;;;;;;;;5009912;28;20045;-84
2023/12/13 09:39:42;;;;;;;8.52;4.07;;;;;;;;;;5023907;28;20487;-82
2023/12/13 09:42:07;;;;;;;11.27;4.70;;;;;;;;;;5023511;28;20034;-83
2023/12/13 09:44:38;;;;;;;9.60;4.68;;;;;;;;;;5025798;28;20032;-84
2023/12/13 11:39:26;;;;;;;13.35;6.93;;;;;;;;;;523886;26;20343;-83
2023/12/13 11:41:52;;;;;;;16.07;7.23;;;;;;;;;;5010231;28;20511;-86
2023/12/13 11:44:17;;;;;;;14.45;7.28;;;;;;;;;;4998624;28;20032;-86
2023/12/13 11:46:43;;;;;;;14.73;7.63;;;;;;;;;;5005809;28;20542;-86
2023/12/13 11:49:08;;;;;;;14.38;7.43;;;;;;;;;;5010646;28;20040;-86
2023/12/13 11:51:34;;;;;;;12.75;7.18;;;;;;;;;;5013683;28;20033;-88
2023/12/13 11:54:00;;;;;;;14.98;7.38;;;;;;;;;;5008535;28;20026;-86
2023/12/13 11:56:26;;;;;;;12.80;7.07;;;;;;;;;;5022540;28;20029;-86
2023/12/13 11:58:51;;;;;;;14.43;7.30;;;;;;;;;;5012229;28;20022;-85
2023/12/13 12:01:19;;;;;;;16.95;7.18;;;;;;;;;;5005065;28;20025;-87
2023/12/13 12:03:45;;;;;;;16.50;7.60;;;;;;;;;;5008606;28;20025;-87
2023/12/13 12:06:18;;;;;;;11.40;6.65;;;;;;;;;;5006327;28;20029;-86
2023/12/13 12:08:44;;;;;;;;;;;;;;;;;;5007303;28;20428;-91
2023/12/13 12:11:13;;;;;;;13.18;6.97;;;;;;;;;;5009815;28;19913;-92
2023/12/13 12:13:40;;;;;;;13.35;7.35;;;;;;;;;;4993219;28;20117;-94
2023/12/13 12:16:06;;;;;;;15.23;7.35;;;;;;;;;;5011723;28;20440;-94
2023/12/13 12:18:32;;;;;;;14.02;7.32;;;;;;;;;;5019180;28;20029;-93
2023/12/13 12:20:57;;;;;;;14.88;6.82;;;;;;;;;;5008657;28;20042;-87
2023/12/13 12:23:23;;;;;;;14.25;7.45;;;;;;;;;;5007114;28;20084;-87
2023/12/13 12:25:53;;;;;;;15.98;7.07;;;;;;;;;;5010600;28;20033;-87
2023/12/13 12:28:18;;;;;;;13.95;6.88;;;;;;;;;;5017386;28;20030;-87
2023/12/13 12:30:45;;;;;;;12.88;6.25;;;;;;;;;;5011832;28;20037;-87
2023/12/13 12:33:10;;;;;;;13.95;6.47;;;;;;;;;;5011680;28;20033;-87
2023/12/13 12:35:36;;;;;;;11.98;7.25;;;;;;;;;;5016861;28;20500;-87
2023/12/13 12:38:04;;;;;;;13.27;7.18;;;;;;;;;;5005038;28;20030;-86
2023/12/13 12:40:29;;;;;;;14.27;7.18;;;;;;;;;;5004832;28;20492;-87
2023/12/13 12:42:55;;;;;;;13.50;7.03;;;;;;;;;;4999634;28;20034;-87
2023/12/13 12:45:20;;;;;;;15.27;7.10;;;;;;;;;;4990119;28;20069;-87
2023/12/13 12:47:46;;;;;;;13.88;6.60;;;;;;;;;;4992003;28;20042;-87
2023/12/13 12:50:11;;;;;;;13.65;7.03;;;;;;;;;;4993027;28;20026;-87
2023/12/13 12:52:38;;;;;;;13.30;7.40;;;;;;;;;;4993535;28;20121;-87
2023/12/13 12:55:04;;;;;;;19.38;7.72;;;;;;;;;;4978950;28;20479;-87
2023/12/13 12:57:29;;;;;;;16.63;9.68;;;;;;;;;;4990277;28;20033;-87
2023/12/13 12:59:54;;;;;;;17.67;10.35;;;;;;;;;;4994062;28;20448;-88
2023/12/13 13:02:20;;;;;;;15.55;8.70;;;;;;;;;;4991376;28;20030;-87
2023/12/13 13:04:46;;;;;;;22.50;9.73;;;;;;;;;;4992845;28;20026;-87
2023/12/13 13:07:12;;;;;;;12.10;7.00;;;;;;;;;;4993267;28;20022;-87
2023/12/13 13:09:41;;;;;;;16.55;8.07;;;;;;;;;;4992050;28;20093;-87
2023/12/13 13:12:06;;;;;;;17.92;8.43;;;;;;;;;;4993352;28;20579;-87
2023/12/13 13:14:32;;;;;;;14.65;6.93;;;;;;;;;;4993320;28;20062;-87
2023/12/13 13:16:57;;;;;;;16.10;7.82;;;;;;;;;;4991331;28;20041;-87
2023/12/13 13:19:23;;;;;;;13.45;6.78;;;;;;;;;;4993268;28;20042;-93
2023/12/13 13:21:48;;;;;;;18.05;7.50;;;;;;;;;;4991522;28;20037;-91
2023/12/13 13:24:14;;;;;;;11.45;6.57;;;;;;;;;;4993705;28;20026;-93
2023/12/13 13:26:39;;;;;;;13.18;6.75;;;;;;;;;;4993222;28;20109;-92
2023/12/13 13:29:05;;;;;;;12.82;6.80;;;;;;;;;;4996596;28;20403;-87
2023/12/13 13:31:33;;;;;;;13.48;7.00;;;;;;;;;;4992458;28;20030;-87
2023/12/13 13:33:59;;;;;;;13.05;6.47;;;;;;;;;;4996772;28;20058;-87
2023/12/13 13:36:24;;;;;;;13.25;6.25;;;;;;;;;;4991126;28;20125;-88
2023/12/13 13:38:53;;;;;;;14.90;6.65;;;;;;;;;;4990591;28;20030;-87
2023/12/13 13:41:37;;;;;;;;;;;;;;;;;;;;;
2023/12/13 13:44:03;;;;;;;16.08;6.80;;;;;;;;;;4990580;28;20030;-87
2023/12/13 13:46:28;;;;;;;14.65;6.07;;;;;;;;;;4989908;28;20036;-87
2023/12/13 13:48:55;;;;;;;17.05;6.45;;;;;;;;;;4990448;28;20034;-86
2023/12/13 13:52:12;;;;;;;14.98;7.13;;;;;;;;;;4987473;28;20573;-87
2023/12/13 13:54:38;;;;;;;14.00;6.93;;;;;;;;;;4985824;28;20038;-87
2023/12/13 13:57:04;;;;;;;12.88;6.82;;;;;;;;;;4988670;28;20038;-87
2023/12/13 13:59:30;;;;;;;12.18;6.82;;;;;;;;;;4993523;28;20033;-86
2023/12/13 14:01:56;;;;;;;14.77;6.70;;;;;;;;;;4992718;28;20496;-87
2023/12/13 14:04:22;;;;;;;15.30;6.20;;;;;;;;;;4988895;28;20026;-87
2023/12/13 14:06:48;;;;;;;14.32;6.40;;;;;;;;;;4992229;28;20057;-87
2023/12/13 14:09:16;;;;;;;14.27;6.20;;;;;;;;;;4990752;28;20064;-87
2023/12/13 14:11:44;;;;;;;12.75;5.78;;;;;;;;;;4992174;28;20038;-87
2023/12/13 14:14:31;;;;;;;14.48;6.65;;;;;;;;;;4990964;28;20037;-87
2023/12/13 14:17:03;;;;;;;13.82;6.50;;;;;;;;;;4994315;28;20069;-88
2023/12/13 14:19:41;;;;;;;12.50;5.82;;;;;;;;;;4992155;28;20381;-87
2023/12/13 14:22:15;;;;;;;11.18;5.28;;;;;;;;;;4988457;28;20662;-87
2023/12/13 14:24:41;;;;;;;11.30;5.47;;;;;;;;;;4976709;28;20421;-88
2023/12/13 14:27:18;;;;;;;13.60;5.70;;;;;;;;;;4984585;28;20371;-87
2023/12/13 14:29:44;;;;;;;13.95;5.75;;;;;;;;;;4989035;28;20022;-90
2023/12/13 14:32:15;;;;;;;12.93;5.78;;;;;;;;;;4991938;28;20488;-89
2023/12/13 14:34:40;;;;;;;10.93;5.55;;;;;;;;;;4992054;28;20029;-89
2023/12/13 14:37:06;;;;;;;9.60;5.20;;;;;;;;;;4992820;28;20031;-90
2023/12/13 14:39:34;;;;;;;12.40;6.20;;;;;;;;;;4995090;28;20040;-86
2023/12/13 14:41:59;;;;;;;12.40;5.97;;;;;;;;;;5011185;28;20052;-86
2023/12/13 14:44:25;;;;;;;14.40;5.88;;;;;;;;;;5016428;28;20473;-86
2023/12/13 14:46:50;;;;;;;12.05;6.05;;;;;;;;;;5012305;28;20033;-86
2023/12/13 14:49:16;;;;;;;10.77;5.60;;;;;;;;;;5014141;28;20283;-86
2023/12/13 14:51:42;;;;;;;12.23;5.68;;;;;;;;;;5032482;28;20029;-86
2023/12/13 14:54:08;;;;;;;10.35;5.30;;;;;;;;;;5014981;28;20033;-87
2023/12/13 14:56:36;;;;;;;11.65;5.15;;;;;;;;;;5015917;28;20404;-87
2023/12/13 14:59:01;;;;;;;10.50;5.55;;;;;;;;;;5014527;28;20459;-87
2023/12/13 15:01:29;;;;;;;8.20;4.63;;;;;;;;;;5030792;28;20079;-87
2023/12/13 15:03:55;;;;;;;8.43;4.70;;;;;;;;;;5012514;28;20369;-86
2023/12/13 15:06:20;;;;;;;9.95;4.95;;;;;;;;;;5032118;28;20021;-87
2023/12/13 15:08:46;;;;;;;10.25;4.60;;;;;;;;;;5013531;28;20041;-87
2023/12/13 15:11:11;;;;;;;11.15;5.32;;;;;;;;;;5017386;28;20071;-88
2023/12/13 15:13:45;;;;;;;10.13;6.15;;;;;;;;;;5014573;28;20029;-86
2023/12/13 15:16:10;;;;;;;10.32;6.15;;;;;;;;;;5013270;28;20481;-88
2023/12/13 15:18:40;;;;;;;8.45;4.88;;;;;;;;;;5015327;28;20118;-87
2023/12/13 15:21:06;;;;;;;8.68;5.03;;;;;;;;;;5017268;28;20082;-88
2023/12/13 15:23:31;;;;;;;12.23;6.43;;;;;;;;;;5014092;28;20061;-87
2023/12/13 15:26:02;;;;;;;13.20;6.30;;;;;;;;;;5012124;28;20057;-88
2023/12/13 15:28:40;;;;;;;8.57;5.60;;;;;;;;;;5009322;28;20037;-87
2023/12/13 15:31:13;;;;;;;7.78;5.45;;;;;;;;;;5007180;28;20033;-87
2023/12/13 15:33:45;;;;;;;12.43;6.82;;;;;;;;;;5010955;28;20781;-87
2023/12/13 15:36:31;;;;;;;12.18;6.40;;;;;;;;;;5013320;28;20112;-87
2023/12/13 15:39:01;;;;;;;10.70;6.75;;;;;;;;;;5011956;28;20063;-87
2023/12/13 15:45:51;;;;;;;10.90;6.88;;;;;;;;;;5029654;28;20096;-87
2023/12/13 15:48:35;;;;;;;9.88;6.07;;;;;;;;;;5019059;28;20041;-87
2023/12/13 15:51:07;;;;;;;9.98;5.93;;;;;;;;;;5015226;28;20065;-94
2023/12/13 15:53:32;;;;;;;12.57;6.43;;;;;;;;;;5000477;28;20143;-95
2023/12/13 15:55:58;;;;;;;12.00;6.93;;;;;;;;;;5017537;28;20112;-90
2023/12/13 15:58:29;;;;;;;10.45;6.78;;;;;;;;;;5012282;28;20156;-91
2023/12/13 16:00:54;;;;;;;13.48;6.63;;;;;;;;;;5011185;28;20040;-92
2023/12/13 16:04:06;;;;;;;12.98;7.45;;;;;;;;;;5015518;28;20025;-94
2023/12/13 16:06:32;;;;;;;13.23;7.13;;;;;;;;;;4975606;28;20037;-92
2023/12/13 16:09:36;;;;;;;12.13;7.15;;;;;;;;;;5008387;28;20701;-92
2023/12/13 16:12:29;;;;;;;;;;;;;;;;;;5008170;28;20056;-92
2023/12/13 16:14:56;;;;;;;12.02;6.88;;;;;;;;;;5007874;28;19923;-93
2023/12/13 16:17:28;;;;;;;10.80;6.70;;;;;;;;;;5008320;28;20087;-93
2023/12/13 16:20:27;;;;;;;10.88;7.13;;;;;;;;;;5013647;28;20026;-91
2023/12/13 16:23:09;;;;;;;10.93;6.13;;;;;;;;;;5006745;28;20083;-91
2023/12/13 16:26:08;;;;;;;11.02;7.00;;;;;;;;;;5006392;28;20420;-92
2023/12/13 16:28:35;;;;;;;12.15;6.65;;;;;;;;;;4985709;28;20492;-90
2023/12/13 16:31:01;;;;;;;11.93;7.40;;;;;;;;;;5008453;28;20465;-94
2023/12/13 16:33:26;;;;;;;12.27;7.72;;;;;;;;;;5005107;28;20155;-91
2023/12/13 16:35:52;;;;;;;13.27;7.40;;;;;;;;;;5008405;28;20026;-92
2023/12/13 16:38:20;;;;;;;14.07;7.47;;;;;;;;;;5005297;28;20029;-93
2023/12/13 16:40:48;;;;;;;12.75;7.40;;;;;;;;;;5009316;28;20029;-90
2023/12/13 16:43:19;;;;;;;15.05;9.02;;;;;;;;;;5005299;28;20018;-90
2023/12/13 16:45:47;;;;;;;20.25;10.82;;;;;;;;;;5003933;28;20036;-92
2023/12/13 16:48:29;;;;;;;18.92;11.60;;;;;;;;;;5006739;28;20030;-93